Time;durP1;ratioP1;P1;durP2;ratioP2;P2;SDS_P1;SDS_P2;PMS_P1;PMS_P2;Temp;Humidity;BMP_temperature;BMP_pressure;BME280_temperature;BME280_humidity;BME280_pressure;Samples;Min_cycle;Max_cycle;Signal;HPM_P1;HPM_P2
2022/10/04 00:00:24;;;;;;;12.95;5.90;;;14.70;79.60;;;;;;5133499;27;20111;-66
2022/10/04 00:02:50;;;;;;;10.55;5.38;;;14.70;79.60;;;;;;5115774;27;20019;-66
2022/10/04 00:05:20;;;;;;;10.10;5.18;;;14.70;79.60;;;;;;5115507;27;20026;-66
2022/10/04 00:07:54;;;;;;;12.18;5.63;;;14.70;79.70;;;;;;5116854;28;20080;-66
2022/10/04 00:10:24;;;;;;;13.25;5.78;;;14.70;79.70;;;;;;5116464;28;20027;-66
2022/10/04 00:12:58;;;;;;;14.50;6.40;;;14.70;79.70;;;;;;5116443;27;20028;-66
2022/10/04 00:15:28;;;;;;;13.48;6.47;;;14.70;80.40;;;;;;5116317;28;20049;-66
2022/10/04 00:18:05;;;;;;;12.05;6.10;;;14.70;79.70;;;;;;5116818;28;20114;-66
2022/10/04 00:20:52;;;;;;;13.75;6.38;;;14.70;79.70;;;;;;5116087;28;20035;-65
2022/10/04 00:23:24;;;;;;;12.80;5.82;;;14.70;79.60;;;;;;5114986;27;20149;-66
2022/10/04 00:26:21;;;;;;;10.05;5.45;;;14.60;79.70;;;;;;5116162;28;20047;-66
2022/10/04 00:28:48;;;;;;;11.80;5.40;;;14.60;80.10;;;;;;5054486;28;20037;-66
2022/10/04 00:31:20;;;;;;;13.02;5.35;;;14.60;79.70;;;;;;5054634;28;20055;-66
2022/10/04 00:33:53;;;;;;;10.70;4.53;;;14.60;79.70;;;;;;5053404;28;20357;-66
2022/10/04 00:36:24;;;;;;;12.05;5.32;;;14.60;79.80;;;;;;5053936;28;20029;-66
2022/10/04 00:39:08;;;;;;;8.98;4.80;;;14.70;79.80;;;;;;5054392;28;20041;-66
2022/10/04 00:41:56;;;;;;;11.25;5.00;;;14.70;79.70;;;;;;5059058;28;20488;-66
2022/10/04 00:44:41;;;;;;;11.10;4.65;;;14.70;79.70;;;;;;5048187;28;20087;-66
2022/10/04 00:47:22;;;;;;;10.32;4.70;;;14.70;79.80;;;;;;5054311;28;20040;-66
2022/10/04 00:49:54;;;;;;;11.55;5.28;;;14.60;79.70;;;;;;5054389;28;20045;-66
2022/10/04 00:52:30;;;;;;;9.48;4.70;;;14.60;79.70;;;;;;5020309;28;20072;-66
2022/10/04 00:55:02;;;;;;;11.30;4.30;;;14.60;79.80;;;;;;5053063;28;20071;-68
2022/10/04 00:57:34;;;;;;;12.68;5.10;;;14.60;79.80;;;;;;5053606;28;20037;-67
2022/10/04 01:00:04;;;;;;;10.57;4.57;;;14.60;79.90;;;;;;5053589;28;20036;-66
2022/10/04 01:02:45;;;;;;;10.27;4.65;;;14.60;79.90;;;;;;5053510;28;20041;-66
2022/10/04 01:05:19;;;;;;;9.05;5.25;;;14.60;79.90;;;;;;5086064;28;20046;-66
2022/10/04 01:07:50;;;;;;;14.18;5.15;;;14.50;79.90;;;;;;5104419;27;20444;-66
2022/10/04 01:10:31;;;;;;;12.50;5.10;;;14.50;79.90;;;;;;5117742;27;20042;-66
2022/10/04 01:13:12;;;;;;;11.48;5.40;;;14.60;79.90;;;;;;5131696;27;20027;-66
2022/10/04 01:15:54;;;;;;;9.68;4.63;;;14.50;79.90;;;;;;5114407;28;20028;-66
2022/10/04 01:18:19;;;;;;;11.32;5.00;;;14.50;80.00;;;;;;5131776;27;20036;-66
2022/10/04 01:20:58;;;;;;;12.25;4.72;;;14.50;79.90;;;;;;5115981;28;20027;-66
2022/10/04 01:23:43;;;;;;;10.50;4.93;;;14.50;80.00;;;;;;5113576;28;20034;-66
2022/10/04 01:26:33;;;;;;;10.63;5.45;;;14.50;80.00;;;;;;5104197;28;20049;-66
2022/10/04 01:29:27;;;;;;;8.68;4.53;;;14.50;80.10;;;;;;5114824;28;20024;-66
2022/10/04 01:31:57;;;;;;;9.30;4.88;;;14.50;80.10;;;;;;5114654;28;20043;-66
2022/10/04 01:34:26;;;;;;;11.18;5.03;;;14.50;80.10;;;;;;5131761;27;20020;-66
2022/10/04 01:37:01;;;;;;;10.40;4.65;;;14.40;80.10;;;;;;5131140;27;20023;-66
2022/10/04 01:39:27;;;;;;;9.35;4.72;;;14.50;80.20;;;;;;5124878;27;21267;-66
2022/10/04 01:42:07;;;;;;;10.70;5.10;;;14.50;80.20;;;;;;5115004;28;20073;-66
2022/10/04 01:44:38;;;;;;;11.98;5.13;;;14.50;80.30;;;;;;5101179;28;20077;-66
2022/10/04 01:47:08;;;;;;;10.50;5.13;;;14.50;80.30;;;;;;5115187;27;20076;-66
2022/10/04 01:49:37;;;;;;;9.80;4.20;;;14.50;80.30;;;;;;5114053;28;20032;-66
2022/10/04 01:52:14;;;;;;;10.77;4.78;;;14.50;80.40;;;;;;5114839;28;20100;-66
2022/10/04 01:54:42;;;;;;;12.32;5.30;;;14.50;80.30;;;;;;5115183;27;20039;-66
2022/10/04 01:57:32;;;;;;;10.65;5.07;;;14.40;80.20;;;;;;5130000;27;20363;-66
2022/10/04 02:00:05;;;;;;;14.35;5.10;;;14.40;80.30;;;;;;5131255;27;20023;-66
2022/10/04 02:02:49;;;;;;;11.02;5.35;;;14.40;80.30;;;;;;5116291;27;20440;-66
2022/10/04 02:05:20;;;;;;;12.63;4.97;;;14.40;80.30;;;;;;5118436;27;20023;-66
2022/10/04 02:07:47;;;;;;;9.30;4.55;;;14.30;80.30;;;;;;5113457;28;20023;-66
2022/10/04 02:10:18;;;;;;;9.55;4.68;;;14.40;80.30;;;;;;5121083;27;20106;-66
2022/10/04 02:12:47;;;;;;;10.13;5.05;;;14.40;80.40;;;;;;5121481;27;20444;-66
2022/10/04 02:15:14;;;;;;;10.75;4.53;;;14.40;80.40;;;;;;5114951;28;20398;-66
2022/10/04 02:17:42;;;;;;;10.68;5.05;;;14.40;80.40;;;;;;5113491;28;20059;-66
2022/10/04 02:20:18;;;;;;;10.63;5.35;;;14.30;80.40;;;;;;5114961;28;20062;-66
2022/10/04 02:22:48;;;;;;;9.73;5.20;;;14.30;80.40;;;;;;5115476;28;20035;-66
2022/10/04 02:25:17;;;;;;;11.80;5.60;;;14.30;80.40;;;;;;5117678;28;20023;-66
2022/10/04 02:27:42;;;;;;;10.43;5.93;;;14.30;80.50;;;;;;5121614;27;20030;-66
2022/10/04 02:30:10;;;;;;;13.35;6.63;;;14.30;80.50;;;;;;5121739;27;20043;-66
2022/10/04 02:32:56;;;;;;;13.02;6.00;;;14.30;80.50;;;;;;5120246;27;20402;-66
2022/10/04 02:35:26;;;;;;;9.77;4.88;;;14.30;80.50;;;;;;5121041;27;20032;-66
2022/10/04 02:38:05;;;;;;;14.82;5.40;;;14.30;80.50;;;;;;5122331;27;20427;-66
2022/10/04 02:40:52;;;;;;;12.43;6.15;;;14.30;80.50;;;;;;5128759;27;20065;-66
2022/10/04 02:43:49;;;;;;;12.63;5.97;;;14.30;80.60;;;;;;5113844;27;20035;-66
2022/10/04 02:46:26;;;;;;;18.98;8.02;;;14.30;80.50;;;;;;5039268;28;20080;-66
2022/10/04 02:48:57;;;;;;;14.25;7.10;;;14.20;80.60;;;;;;5039817;28;20066;-66
2022/10/04 02:51:37;;;;;;;13.00;6.78;;;14.20;80.50;;;;;;5039236;28;20037;-66
2022/10/04 02:54:35;;;;;;;15.02;6.97;;;14.20;80.50;;;;;;5037613;28;20351;-66
2022/10/04 02:57:02;;;;;;;12.63;6.80;;;14.20;80.50;;;;;;5027844;28;20111;-66
2022/10/04 02:59:30;;;;;;;14.52;8.23;;;14.20;80.50;;;;;;5038276;28;20041;-66
2022/10/04 03:02:00;;;;;;;13.85;7.60;;;14.20;80.50;;;;;;5019567;28;20053;-66
2022/10/04 03:04:44;;;;;;;13.68;7.35;;;14.10;80.50;;;;;;5038380;28;20421;-66
2022/10/04 03:07:09;;;;;;;12.50;6.30;;;14.10;80.40;;;;;;5038922;28;20040;-66
2022/10/04 03:09:38;;;;;;;12.57;6.32;;;14.10;80.50;;;;;;5038733;28;20045;-66
2022/10/04 03:12:04;;;;;;;11.02;6.50;;;14.10;80.40;;;;;;5037488;28;20087;-66
2022/10/04 03:14:31;;;;;;;13.45;6.80;;;14.10;80.50;;;;;;5039848;28;20033;-66
2022/10/04 03:17:02;;;;;;;12.77;6.47;;;14.10;80.40;;;;;;5037416;28;20045;-66
2022/10/04 03:19:30;;;;;;;13.48;5.78;;;14.10;80.40;;;;;;5037001;28;20045;-66
2022/10/04 03:22:00;;;;;;;10.18;5.55;;;14.00;80.40;;;;;;5038231;27;20029;-66
2022/10/04 03:24:31;;;;;;;9.65;5.10;;;14.00;80.40;;;;;;5112430;28;20027;-66
2022/10/04 03:27:02;;;;;;;11.95;5.30;;;14.00;80.40;;;;;;5120700;27;20479;-66
2022/10/04 03:29:31;;;;;;;9.88;5.30;;;14.00;80.40;;;;;;5119647;27;20074;-66
2022/10/04 03:31:59;;;;;;;8.98;4.93;;;14.00;80.40;;;;;;5119726;27;20410;-66
2022/10/04 03:34:51;;;;;;;11.88;5.07;;;14.00;80.40;;;;;;5126278;27;20383;-65
2022/10/04 03:37:20;;;;;;;10.85;4.65;;;13.90;80.30;;;;;;5132553;27;20043;-65
2022/10/04 03:39:49;;;;;;;10.77;4.40;;;13.90;80.30;;;;;;5116934;28;20031;-66
2022/10/04 03:42:18;;;;;;;9.15;4.68;;;13.90;80.30;;;;;;5116847;27;20448;-66
2022/10/04 03:44:46;;;;;;;9.40;4.13;;;13.90;80.30;;;;;;5118117;28;20038;-66
2022/10/04 03:47:19;;;;;;;8.88;4.65;;;13.90;80.20;;;;;;5116197;28;20049;-66
2022/10/04 03:49:47;;;;;;;10.77;4.88;;;13.80;80.20;;;;;;5117745;27;20115;-66
2022/10/04 03:52:20;;;;;;;9.25;4.35;;;13.80;80.10;;;;;;5120537;27;20035;-66
2022/10/04 03:54:50;;;;;;;10.70;4.80;;;13.80;80.10;;;;;;5117575;28;20035;-66
2022/10/04 03:57:15;;;;;;;9.05;4.80;;;13.80;80.10;;;;;;5118476;27;20016;-66
2022/10/04 03:59:42;;;;;;;10.63;5.22;;;13.80;80.10;;;;;;5116731;27;20459;-66
2022/10/04 04:02:08;;;;;;;10.13;4.97;;;13.70;80.00;;;;;;5116749;27;20345;-66
2022/10/04 04:05:03;;;;;;;9.40;5.28;;;13.70;79.90;;;;;;5117641;28;20359;-66
2022/10/04 04:07:37;;;;;;;9.52;5.05;;;13.60;79.80;;;;;;5115917;27;20028;-66
2022/10/04 04:10:41;;;;;;;9.93;5.00;;;13.60;79.80;;;;;;5117315;28;20024;-66
2022/10/04 04:13:28;;;;;;;10.80;5.22;;;13.60;79.70;;;;;;5074001;28;20070;-66
2022/10/04 04:15:55;;;;;;;9.55;5.47;;;13.60;79.80;;;;;;5075878;28;20094;-66
2022/10/04 04:18:23;;;;;;;8.63;4.68;;;13.50;79.80;;;;;;5073660;28;20028;-66
2022/10/04 04:20:52;;;;;;;13.60;5.28;;;13.50;79.70;;;;;;5074474;28;20055;-66
2022/10/04 04:23:22;;;;;;;9.40;5.57;;;13.50;79.70;;;;;;5074547;28;20030;-66
2022/10/04 04:25:53;;;;;;;9.00;5.63;;;13.50;79.70;;;;;;5056180;28;20051;-66
2022/10/04 04:29:12;;;;;;;11.68;5.68;;;13.40;79.60;;;;;;5075684;28;20385;-66
2022/10/04 04:31:45;;;;;;;12.05;6.22;;;13.40;79.50;;;;;;5014692;28;20034;-66
2022/10/04 04:34:23;;;;;;;12.98;5.93;;;13.30;79.60;;;;;;5014173;28;20128;-66
2022/10/04 04:36:49;;;;;;;10.65;6.13;;;13.40;79.60;;;;;;5014138;28;20093;-66
2022/10/04 04:39:39;;;;;;;11.20;5.60;;;13.30;79.60;;;;;;5014080;28;20049;-66
2022/10/04 04:42:10;;;;;;;9.15;5.53;;;13.30;79.50;;;;;;5015003;28;20041;-66
2022/10/04 04:44:43;;;;;;;12.73;6.07;;;13.30;79.50;;;;;;5014341;28;20443;-66
2022/10/04 04:47:37;;;;;;;12.07;5.60;;;13.30;79.50;;;;;;5031547;28;20509;-66
2022/10/04 04:50:17;;;;;;;9.77;5.25;;;13.20;79.40;;;;;;5035528;28;20057;-66
2022/10/04 04:52:50;;;;;;;11.38;5.85;;;13.20;79.40;;;;;;5040319;28;20135;-66
2022/10/04 04:55:23;;;;;;;10.82;5.88;;;13.20;80.00;;;;;;5054317;28;20058;-66
2022/10/04 04:57:50;;;;;;;10.45;6.38;;;13.20;79.30;;;;;;5052766;28;20047;-66
2022/10/04 05:00:25;;;;;;;9.77;5.82;;;13.20;79.30;;;;;;5053789;28;20378;-66
2022/10/04 05:02:56;;;;;;;9.63;6.07;;;13.20;79.30;;;;;;5037376;28;20052;-66
2022/10/04 05:05:33;;;;;;;11.40;6.57;;;13.20;79.30;;;;;;5086989;28;20043;-65
2022/10/04 05:08:03;;;;;;;9.95;6.10;;;13.10;79.20;;;;;;5130068;27;20024;-65
2022/10/04 05:10:33;;;;;;;12.80;6.10;;;13.10;79.20;;;;;;5116113;28;20039;-65
2022/10/04 05:13:00;;;;;;;12.32;7.13;;;13.10;79.30;;;;;;5096929;28;20038;-65
2022/10/04 05:15:31;;;;;;;11.40;7.13;;;13.00;79.20;;;;;;5113821;27;20326;-64
2022/10/04 05:17:58;;;;;;;11.23;7.35;;;13.00;79.20;;;;;;5113973;27;20055;-65
2022/10/04 05:20:25;;;;;;;13.88;7.72;;;13.00;79.30;;;;;;5131866;27;20115;-65
2022/10/04 05:22:51;;;;;;;11.20;7.72;;;13.00;79.20;;;;;;5131598;27;20368;-65
2022/10/04 05:25:32;;;;;;;12.43;7.25;;;13.00;79.20;;;;;;5113260;28;20456;-65
2022/10/04 05:27:58;;;;;;;12.05;7.65;;;13.00;79.10;;;;;;5114407;27;20459;-65
2022/10/04 05:30:32;;;;;;;16.30;7.70;;;13.00;79.20;;;;;;5108659;28;20115;-65
2022/10/04 05:33:03;;;;;;;12.70;8.05;;;13.00;79.10;;;;;;5117626;27;20114;-65
2022/10/04 05:35:43;;;;;;;14.82;7.55;;;13.00;79.10;;;;;;5113978;28;20359;-65
2022/10/04 05:38:32;;;;;;;14.07;7.70;;;13.00;79.70;;;;;;5114878;28;20031;-64
2022/10/04 05:41:24;;;;;;;11.00;7.75;;;13.00;79.00;;;;;;5115804;28;20140;-65
2022/10/04 05:43:50;;;;;;;11.95;8.05;;;12.90;79.00;;;;;;5114087;28;20028;-64
2022/10/04 05:46:16;;;;;;;12.32;8.48;;;12.90;79.10;;;;;;5115106;27;20016;-65
2022/10/04 05:48:44;;;;;;;11.95;8.30;;;12.90;79.10;;;;;;5115627;28;20463;-65
2022/10/04 05:51:31;;;;;;;11.35;8.02;;;12.90;79.10;;;;;;5114849;28;20348;-64
2022/10/04 05:54:00;;;;;;;12.88;8.38;;;13.00;79.10;;;;;;5114603;28;20042;-65
2022/10/04 05:56:34;;;;;;;12.43;7.18;;;12.90;79.10;;;;;;5114919;28;20114;-65
2022/10/04 05:59:06;;;;;;;13.15;7.93;;;13.00;79.20;;;;;;5115119;28;20042;-65
2022/10/04 06:02:16;;;;;;;13.20;8.50;;;13.00;79.20;;;;;;5113746;28;20092;-65
2022/10/04 06:05:00;;;;;;;13.10;7.88;;;12.90;79.00;;;;;;5114590;28;20030;-64
2022/10/04 06:07:37;;;;;;;14.63;7.82;;;12.90;79.10;;;;;;5114988;27;20057;-65
2022/10/04 06:10:40;;;;;;;11.38;7.70;;;12.90;79.80;;;;;;5115537;28;20039;-65
2022/10/04 06:13:53;;;;;;;11.57;7.85;;;12.90;79.10;;;;;;5133457;27;20370;-65
2022/10/04 06:16:47;;;;;;;13.93;7.88;;;12.90;79.20;;;;;;5074707;28;20107;-65
2022/10/04 06:19:22;;;;;;;13.85;8.15;;;12.90;79.20;;;;;;5073037;28;20032;-67
2022/10/04 06:22:13;;;;;;;17.65;8.68;;;12.90;79.20;;;;;;5071583;28;20552;-67
2022/10/04 06:24:43;;;;;;;12.27;7.72;;;13.00;79.20;;;;;;5073197;28;20036;-67
2022/10/04 06:27:50;;;;;;;12.40;7.95;;;13.00;79.20;;;;;;5072541;28;20510;-65
2022/10/04 06:30:17;;;;;;;14.25;8.40;;;13.00;79.00;;;;;;5055909;28;20120;-65
2022/10/04 06:32:59;;;;;;;15.98;8.98;;;13.00;79.20;;;;;;5071148;28;20483;-63
2022/10/04 06:35:59;;;;;;;13.73;8.60;;;13.00;79.80;;;;;;5070348;28;20442;-63
2022/10/04 06:38:46;;;;;;;16.80;8.77;;;13.00;79.00;;;;;;5063453;28;20051;-64
2022/10/04 06:41:29;;;;;;;15.65;8.63;;;13.00;79.00;;;;;;5072049;28;20474;-62
2022/10/04 06:44:06;;;;;;;13.57;8.93;;;13.10;79.10;;;;;;5073841;28;20016;-62
2022/10/04 06:47:04;;;;;;;13.48;8.43;;;13.10;79.10;;;;;;5084333;28;20031;-63
2022/10/04 06:49:45;;;;;;;13.40;7.97;;;13.10;79.10;;;;;;5109782;28;20042;-65
2022/10/04 06:52:23;;;;;;;13.73;8.40;;;13.10;79.20;;;;;;5124820;28;20035;-64
2022/10/04 06:55:01;;;;;;;14.63;8.93;;;13.10;79.20;;;;;;5115205;28;20399;-64
2022/10/04 06:58:07;;;;;;;12.25;8.90;;;13.10;79.20;;;;;;5114771;28;20039;-65
2022/10/04 07:00:50;;;;;;;13.65;9.40;;;13.10;79.10;;;;;;5108218;28;20040;-63
2022/10/04 07:03:28;;;;;;;14.20;8.68;;;13.10;79.10;;;;;;5126439;28;20459;-64
2022/10/04 07:06:02;;;;;;;14.05;8.65;;;13.10;79.20;;;;;;5122611;27;20032;-64
2022/10/04 07:08:47;;;;;;;14.45;9.30;;;13.10;79.20;;;;;;5110820;28;20056;-64
2022/10/04 07:11:13;;;;;;;19.30;9.18;;;13.10;79.20;;;;;;5121121;27;20031;-65
2022/10/04 07:13:49;;;;;;;15.40;9.23;;;13.20;79.30;;;;;;5134844;27;20028;-64
2022/10/04 07:16:24;;;;;;;14.98;9.25;;;13.20;79.20;;;;;;5118450;28;20420;-64
2022/10/04 07:18:58;;;;;;;13.73;9.38;;;13.20;79.20;;;;;;5122357;27;20047;-64
2022/10/04 07:21:32;;;;;;;14.65;9.02;;;13.20;79.20;;;;;;5124062;27;20110;-64
2022/10/04 07:24:02;;;;;;;14.27;8.90;;;13.20;79.20;;;;;;5118969;28;20023;-64
2022/10/04 07:26:52;;;;;;;15.23;9.27;;;13.30;79.20;;;;;;5117824;27;20102;-64
2022/10/04 07:29:32;;;;;;;13.57;8.52;;;13.30;79.10;;;;;;5107562;27;20432;-64
2022/10/04 07:32:01;;;;;;;14.57;9.82;;;13.40;79.20;;;;;;5119721;27;20630;-65
2022/10/04 07:34:30;;;;;;;15.38;8.70;;;13.50;79.20;;;;;;5118319;28;20024;-64
2022/10/04 07:36:58;;;;;;;12.80;9.27;;;13.50;79.10;;;;;;5118370;28;20128;-64
2022/10/04 07:39:53;;;;;;;14.32;9.18;;;13.60;79.00;;;;;;5133064;27;20028;-64
2022/10/04 07:42:48;;;;;;;15.80;8.50;;;13.70;78.90;;;;;;5128333;27;20032;-64
2022/10/04 07:45:43;;;;;;;13.50;9.05;;;13.80;78.80;;;;;;5130553;27;20054;-65
2022/10/04 07:48:21;;;;;;;14.13;8.02;;;13.90;78.50;;;;;;5108641;27;20120;-65
2022/10/04 07:51:12;;;;;;;15.25;9.32;;;14.10;78.40;;;;;;5118092;27;20023;-64
2022/10/04 07:53:50;;;;;;;13.55;8.38;;;14.30;78.00;;;;;;5111564;28;20088;-64
2022/10/04 07:56:30;;;;;;;18.00;8.95;;;14.50;77.60;;;;;;5117482;28;20380;-64
2022/10/04 07:59:14;;;;;;;17.05;7.80;;;14.70;77.10;;;;;;5114035;28;20027;-65
2022/10/04 08:01:46;;;;;;;13.20;7.20;;;14.80;76.80;;;;;;5107760;27;20038;-65
2022/10/04 08:04:36;;;;;;;11.93;7.75;;;14.90;76.50;;;;;;5116065;28;20038;-66
2022/10/04 08:07:13;;;;;;;11.43;6.75;;;14.90;76.40;;;;;;5099404;28;20028;-65
2022/10/04 08:10:02;;;;;;;11.07;7.40;;;14.90;76.30;;;;;;5098526;28;20448;-64
2022/10/04 08:12:36;;;;;;;11.95;6.82;;;15.10;76.00;;;;;;5112595;27;20043;-65
2022/10/04 08:15:33;;;;;;;13.02;6.88;;;15.30;75.60;;;;;;5132147;27;20367;-66
2022/10/04 08:18:38;;;;;;;10.75;6.28;;;15.40;75.20;;;;;;5130030;27;20115;-67
2022/10/04 08:21:13;;;;;;;10.13;6.15;;;15.60;74.80;;;;;;5113318;28;20087;-73
2022/10/04 08:23:54;;;;;;;11.82;6.35;;;15.70;74.40;;;;;;5112644;28;20106;-66
2022/10/04 08:26:39;;;;;;;11.40;5.90;;;15.90;74.00;;;;;;5115076;28;20114;-64
2022/10/04 08:29:41;;;;;;;9.30;5.55;;;16.10;73.50;;;;;;5117928;27;20031;-65
2022/10/04 08:32:29;;;;;;;10.35;5.65;;;16.30;73.10;;;;;;5124848;27;20464;-66
2022/10/04 08:35:19;;;;;;;10.73;5.97;;;16.60;72.60;;;;;;5112333;28;20054;-66
2022/10/04 08:38:20;;;;;;;13.20;5.80;;;16.80;71.80;;;;;;5113756;27;20352;-65
2022/10/04 08:41:23;;;;;;;12.02;5.53;;;17.10;71.30;;;;;;5130221;27;20161;-65
2022/10/04 08:44:00;;;;;;;12.73;5.43;;;17.40;70.50;;;;;;5119549;27;20107;-66
2022/10/04 08:47:04;;;;;;;9.32;5.82;;;17.50;70.00;;;;;;5117067;27;20380;-66
2022/10/04 08:49:56;;;;;;;10.15;5.30;;;17.60;69.60;;;;;;5103656;28;20027;-66
2022/10/04 08:52:40;;;;;;;11.35;6.50;;;17.70;69.40;;;;;;5116603;28;20036;-67
2022/10/04 08:55:44;;;;;;;9.57;5.93;;;17.90;68.80;;;;;;5115591;27;20049;-65
2022/10/04 08:58:26;;;;;;;9.63;5.38;;;18.10;68.10;;;;;;5115922;28;20031;-65
2022/10/04 09:01:26;;;;;;;9.75;5.93;;;18.30;67.70;;;;;;5131525;27;20031;-65
2022/10/04 09:04:13;;;;;;;14.45;6.43;;;18.50;67.20;;;;;;5117563;27;20026;-65
2022/10/04 09:06:50;;;;;;;11.15;5.20;;;18.70;66.80;;;;;;5115974;28;20440;-65
2022/10/04 09:09:34;;;;;;;12.05;6.20;;;18.80;66.60;;;;;;5113982;28;20031;-65
2022/10/04 09:12:40;;;;;;;10.63;5.22;;;19.00;65.90;;;;;;5114427;28;20121;-65
2022/10/04 09:15:51;;;;;;;10.75;5.07;;;19.00;65.50;;;;;;5128602;27;20023;-65
2022/10/04 09:18:21;;;;;;;11.20;5.55;;;19.20;65.30;;;;;;5051523;28;20159;-65
2022/10/04 09:21:07;;;;;;;11.18;5.63;;;19.20;65.20;;;;;;5051007;28;20441;-65
2022/10/04 09:24:03;;;;;;;9.85;5.25;;;19.30;64.40;;;;;;5051237;28;20121;-65
2022/10/04 09:26:32;;;;;;;9.45;5.63;;;19.40;64.10;;;;;;5052326;28;20029;-65
2022/10/04 09:29:12;;;;;;;12.95;5.25;;;19.50;64.00;;;;;;5051105;28;20512;-65
2022/10/04 09:31:47;;;;;;;9.93;5.90;;;19.50;63.80;;;;;;5052188;28;20127;-65
2022/10/04 09:34:42;;;;;;;10.30;5.35;;;19.60;63.70;;;;;;5050226;28;20021;-66
2022/10/04 09:37:21;;;;;;;11.27;5.47;;;19.70;63.20;;;;;;5010910;28;20137;-65
2022/10/04 09:39:59;;;;;;;10.10;5.22;;;19.70;62.70;;;;;;5011039;28;20137;-65
2022/10/04 09:42:30;;;;;;;10.98;5.55;;;19.70;62.50;;;;;;5011576;28;20046;-65
2022/10/04 09:45:05;;;;;;;;;;;19.70;62.70;;;;;;5012274;28;20037;-65
2022/10/04 09:47:44;;;;;;;9.57;5.57;;;19.80;63.00;;;;;;4995852;28;19909;-66
2022/10/04 09:50:36;;;;;;;9.77;4.82;;;19.80;62.60;;;;;;5028919;28;20037;-65
2022/10/04 09:53:05;;;;;;;;;;;19.80;62.30;;;;;;5028875;28;20037;-65
2022/10/04 09:56:18;;;;;;;9.65;4.93;;;19.90;62.60;;;;;;5015067;28;20003;-66
2022/10/04 09:59:21;;;;;;;10.43;5.03;;;19.90;62.30;;;;;;5008062;28;20045;-66
2022/10/04 10:01:59;;;;;;;9.40;5.10;;;20.00;61.90;;;;;;5032070;28;20351;-66
2022/10/04 10:04:33;;;;;;;11.27;5.18;;;20.00;61.50;;;;;;5030881;28;20027;-66
2022/10/04 10:07:24;;;;;;;10.93;4.93;;;20.00;61.50;;;;;;5031913;28;20120;-66
2022/10/04 10:13:44;;;;;;;10.03;4.70;;;20.20;61.00;;;;;;5031747;28;20049;-65
2022/10/04 10:16:59;;;;;;;10.05;5.25;;;20.30;61.00;;;;;;5107071;28;20456;-65
2022/10/04 10:20:09;;;;;;;8.95;4.60;;;20.30;60.70;;;;;;5101874;27;20140;-65
2022/10/04 10:22:53;;;;;;;9.18;4.22;;;20.40;60.60;;;;;;5110883;28;20026;-66
2022/10/04 10:25:47;;;;;;;8.85;4.00;;;20.50;60.30;;;;;;5096822;28;20395;-65
2022/10/04 10:28:56;;;;;;;9.30;4.15;;;20.50;60.10;;;;;;5111630;28;20103;-67
2022/10/04 10:31:32;;;;;;;11.48;4.25;;;20.60;60.00;;;;;;5112494;28;20060;-65
2022/10/04 10:34:20;;;;;;;10.90;4.10;;;20.70;59.90;;;;;;5112278;28;20112;-65
2022/10/04 10:37:08;;;;;;;9.52;3.85;;;20.70;59.40;;;;;;5111520;28;20101;-66
2022/10/04 10:40:08;;;;;;;9.95;4.38;;;20.80;59.30;;;;;;5113099;28;20047;-66
2022/10/04 10:42:48;;;;;;;9.45;4.50;;;20.80;58.90;;;;;;5112635;28;20043;-66
2022/10/04 10:45:35;;;;;;;7.43;4.07;;;20.80;58.80;;;;;;5111274;28;20103;-68
2022/10/04 10:48:18;;;;;;;9.88;3.60;;;20.80;58.90;;;;;;5114398;28;20020;-67
2022/10/04 10:50:59;;;;;;;10.18;4.45;;;20.90;58.80;;;;;;5114307;28;20035;-66
2022/10/04 10:54:04;;;;;;;10.95;4.20;;;20.90;58.80;;;;;;5112951;27;20035;-65
2022/10/04 10:56:35;;;;;;;10.32;4.00;;;20.90;58.60;;;;;;5115831;28;20035;-66
2022/10/04 10:59:26;;;;;;;9.70;4.45;;;20.90;58.80;;;;;;5116843;28;20036;-65
2022/10/04 11:02:13;;;;;;;9.63;4.60;;;21.00;58.40;;;;;;5115334;28;20028;-67
2022/10/04 11:05:16;;;;;;;10.48;4.25;;;20.90;58.30;;;;;;5116936;27;20071;-67
2022/10/04 11:07:55;;;;;;;8.52;3.78;;;20.90;58.00;;;;;;5117200;28;20058;-66
2022/10/04 11:11:02;;;;;;;7.47;3.60;;;21.00;58.00;;;;;;5122897;27;20123;-66
2022/10/04 11:13:47;;;;;;;9.70;4.13;;;21.00;57.90;;;;;;5119247;27;20026;-69
2022/10/04 11:16:46;;;;;;;8.38;4.20;;;21.00;57.70;;;;;;5118330;28;20047;-67
2022/10/04 11:19:45;;;;;;;10.25;4.75;;;21.00;57.80;;;;;;5118448;28;20032;-64
2022/10/04 11:22:48;;;;;;;9.02;4.68;;;21.00;57.60;;;;;;5105401;28;20137;-65
2022/10/04 11:25:34;;;;;;;7.30;3.38;;;20.90;57.30;;;;;;5117043;27;20034;-66
2022/10/04 11:28:19;;;;;;;9.75;4.45;;;20.90;57.50;;;;;;5117384;28;20059;-65
2022/10/04 11:31:03;;;;;;;8.77;3.90;;;20.90;57.50;;;;;;5125069;27;20367;-65
2022/10/04 11:33:51;;;;;;;9.43;4.28;;;20.90;57.30;;;;;;5118568;27;20035;-66
2022/10/04 11:36:47;;;;;;;11.13;4.72;;;20.90;57.30;;;;;;5117016;28;20364;-65
2022/10/04 11:39:19;;;;;;;8.85;4.60;;;20.90;57.00;;;;;;5109621;28;20023;-65
2022/10/04 11:42:00;;;;;;;9.60;4.35;;;20.90;57.30;;;;;;5143428;27;20035;-65
2022/10/04 11:45:07;;;;;;;9.30;4.25;;;20.90;57.10;;;;;;5121640;27;20127;-65
2022/10/04 11:47:40;;;;;;;8.68;4.22;;;20.90;57.20;;;;;;5116784;28;20049;-66
2022/10/04 11:50:15;;;;;;;8.60;4.20;;;20.80;57.30;;;;;;5117028;28;20031;-66
2022/10/04 11:53:12;;;;;;;9.55;4.28;;;20.80;57.20;;;;;;5115494;27;20038;-65
2022/10/04 11:56:04;;;;;;;8.90;3.38;;;20.80;57.20;;;;;;5116429;28;20032;-65
2022/10/04 11:59:17;;;;;;;7.20;3.47;;;20.70;57.30;;;;;;5111206;27;20032;-65
2022/10/04 12:01:58;;;;;;;8.95;3.78;;;20.80;57.00;;;;;;5113308;27;20393;-65
2022/10/04 12:04:52;;;;;;;6.72;3.08;;;20.80;57.00;;;;;;5119000;27;20027;-65
2022/10/04 12:07:33;;;;;;;7.80;3.20;;;20.70;56.80;;;;;;5123208;27;20032;-67
2022/10/04 12:10:21;;;;;;;9.35;3.58;;;20.60;56.80;;;;;;5115670;28;20118;-68
2022/10/04 12:12:59;;;;;;;8.70;3.55;;;20.50;56.90;;;;;;5116440;28;20363;-68
2022/10/04 12:15:40;;;;;;;7.38;3.60;;;20.40;56.90;;;;;;5118108;27;20141;-66
2022/10/04 12:18:27;;;;;;;8.50;3.33;;;20.30;57.10;;;;;;5116321;28;20063;-66
2022/10/04 12:21:02;;;;;;;6.60;3.20;;;20.20;57.40;;;;;;5121409;27;20055;-66
2022/10/04 12:23:59;;;;;;;8.52;3.75;;;20.10;57.30;;;;;;5118722;27;20057;-66
2022/10/04 12:26:48;;;;;;;8.68;3.58;;;20.10;57.20;;;;;;5097996;28;20036;-66
2022/10/04 12:29:41;;;;;;;7.93;3.65;;;20.10;57.20;;;;;;5117166;28;20031;-67
2022/10/04 12:32:22;;;;;;;8.80;3.17;;;20.00;57.30;;;;;;5116207;28;20332;-67
2022/10/04 12:35:17;;;;;;;15.35;3.72;;;19.90;57.40;;;;;;5117494;28;20082;-66
2022/10/04 12:38:20;;;;;;;8.50;3.42;;;19.80;57.40;;;;;;5132827;27;20039;-67
2022/10/04 12:40:52;;;;;;;8.35;3.70;;;19.80;57.70;;;;;;5131478;27;20063;-67
2022/10/04 12:43:37;;;;;;;;;;;19.80;57.70;;;;;;5117123;28;20027;-66
2022/10/04 12:46:11;;;;;;;8.75;3.35;;;19.90;57.90;;;;;;5115797;27;19911;-67
2022/10/04 12:48:55;;;;;;;7.40;3.10;;;19.80;58.00;;;;;;5120939;27;20106;-67
2022/10/04 12:51:26;;;;;;;8.93;3.60;;;19.80;58.00;;;;;;5114760;28;20032;-68
2022/10/04 12:54:11;;;;;;;8.80;3.50;;;19.80;58.00;;;;;;5117201;28;20114;-66
2022/10/04 12:56:46;;;;;;;7.43;3.53;;;19.80;58.00;;;;;;5111909;28;20023;-70
2022/10/04 12:59:36;;;;;;;9.35;3.50;;;19.80;57.90;;;;;;5096094;28;20142;-66
2022/10/04 13:02:13;;;;;;;8.73;3.38;;;19.80;57.80;;;;;;5113226;28;20031;-66
2022/10/04 13:04:46;;;;;;;8.18;3.13;;;19.80;58.00;;;;;;5115501;28;20035;-67
2022/10/04 13:07:18;;;;;;;8.15;3.22;;;19.80;57.90;;;;;;5115613;28;20091;-67
2022/10/04 13:10:05;;;;;;;6.38;2.88;;;19.80;57.60;;;;;;5116463;28;20063;-67
2022/10/04 13:13:03;;;;;;;7.13;3.38;;;19.80;57.30;;;;;;5116367;28;20036;-66
2022/10/04 13:15:54;;;;;;;6.68;3.15;;;19.80;57.00;;;;;;5099181;28;20038;-66
2022/10/04 13:18:30;;;;;;;8.02;3.45;;;19.80;56.70;;;;;;5113266;28;20478;-66
2022/10/04 13:21:00;;;;;;;9.88;3.17;;;19.90;56.50;;;;;;5116343;28;20380;-66
2022/10/04 13:23:40;;;;;;;8.95;3.60;;;19.80;56.40;;;;;;5097956;28;20034;-66
2022/10/04 13:26:21;;;;;;;6.28;2.67;;;19.70;56.30;;;;;;5115521;27;20032;-66
2022/10/04 13:29:01;;;;;;;8.07;2.90;;;19.70;56.50;;;;;;5115140;28;20062;-66
2022/10/04 13:31:59;;;;;;;7.07;2.92;;;19.60;56.40;;;;;;5116053;28;20027;-69
2022/10/04 13:34:38;;;;;;;7.35;3.30;;;19.60;56.60;;;;;;5116815;27;20063;-66
2022/10/04 13:37:31;;;;;;;6.93;2.72;;;19.50;57.00;;;;;;5104400;28;20027;-67
2022/10/04 13:40:21;;;;;;;7.30;2.80;;;19.50;57.00;;;;;;5123553;27;20487;-68
2022/10/04 13:43:12;;;;;;;7.72;3.13;;;19.40;56.90;;;;;;5114531;27;20475;-66
2022/10/04 13:46:01;;;;;;;6.85;2.85;;;19.40;56.90;;;;;;5112843;28;20135;-66
2022/10/04 13:48:49;;;;;;;7.68;2.90;;;19.30;57.10;;;;;;5097241;28;20042;-67
2022/10/04 13:51:47;;;;;;;6.45;2.97;;;19.30;57.30;;;;;;5113936;28;20119;-66
2022/10/04 13:57:16;;;;;;;7.90;3.22;;;19.20;57.40;;;;;;5114256;27;20027;-66